createdAt,value
2018-09-29T00:00:53.067Z,932.16
2018-09-29T00:01:53.015Z,932.12
2018-09-29T00:02:52.955Z,932.17
2018-09-29T00:03:52.919Z,932.14
2018-09-29T00:04:53.005Z,932.18
2018-09-29T00:05:52.822Z,932.20
2018-09-29T00:06:52.757Z,932.19
2018-09-29T00:07:52.719Z,932.18
2018-09-29T00:08:52.685Z,932.17
2018-09-29T00:09:52.635Z,932.13
2018-09-29T00:10:52.594Z,932.19
2018-09-29T00:11:52.547Z,932.19
2018-09-29T00:12:52.490Z,932.24
2018-09-29T00:13:52.444Z,932.22
2018-09-29T00:14:52.418Z,932.31
2018-09-29T00:15:52.345Z,932.27
2018-09-29T00:16:52.316Z,932.29
2018-09-29T00:17:52.266Z,932.31
2018-09-29T00:18:52.230Z,932.29
2018-09-29T00:19:52.161Z,932.32
2018-09-29T00:20:52.144Z,932.29
2018-09-29T00:21:52.088Z,932.29
2018-09-29T00:22:52.030Z,932.26
2018-09-29T00:23:51.995Z,932.18
2018-09-29T00:24:51.939Z,932.21
2018-09-29T00:25:51.892Z,932.19
2018-09-29T00:26:51.847Z,932.20
2018-09-29T00:27:51.795Z,932.18
2018-09-29T00:28:51.863Z,932.24
2018-09-29T00:29:51.707Z,932.23
2018-09-29T00:30:51.685Z,932.27
2018-09-29T00:31:51.620Z,932.31
2018-09-29T00:32:51.559Z,932.34
2018-09-29T00:33:51.517Z,932.32
2018-09-29T00:34:51.589Z,932.30
2018-09-29T00:35:51.442Z,932.27
2018-09-29T00:36:51.381Z,932.28
2018-09-29T00:37:51.373Z,932.29
2018-09-29T00:38:51.303Z,932.22
2018-09-29T00:39:51.255Z,932.27
2018-09-29T00:40:51.310Z,932.21
2018-09-29T00:41:51.164Z,932.23
2018-09-29T00:42:51.116Z,932.24
2018-09-29T00:43:51.064Z,932.19
2018-09-29T00:44:51.019Z,932.29
2018-09-29T00:45:50.981Z,932.24
2018-09-29T00:46:51.034Z,932.28
2018-09-29T00:47:50.917Z,932.26
2018-09-29T00:48:50.827Z,932.28
2018-09-29T00:49:50.815Z,932.26
2018-09-29T00:50:50.750Z,932.25
2018-09-29T00:51:50.697Z,932.27
2018-09-29T00:52:50.658Z,932.29
2018-09-29T00:53:50.608Z,932.26
2018-09-29T00:54:50.553Z,932.26
2018-09-29T00:55:50.508Z,932.26
2018-09-29T00:56:50.475Z,932.22
2018-09-29T00:57:50.431Z,932.23
2018-09-29T00:58:50.388Z,932.23
2018-09-29T00:59:50.325Z,932.21
2018-09-29T01:00:50.284Z,932.18
2018-09-29T01:01:50.247Z,932.12
2018-09-29T01:02:50.205Z,932.19
2018-09-29T01:03:50.150Z,932.21
2018-09-29T01:04:50.228Z,932.14
2018-09-29T01:05:50.061Z,932.13
2018-09-29T01:06:50.024Z,932.11
2018-09-29T01:07:49.962Z,932.16
2018-09-29T01:08:49.915Z,932.15
2018-09-29T01:09:49.876Z,932.23
2018-09-29T01:10:49.934Z,932.20
2018-09-29T01:11:49.783Z,932.22
2018-09-29T01:12:49.737Z,932.22
2018-09-29T01:13:49.691Z,932.19
2018-09-29T01:14:49.641Z,932.19
2018-09-29T01:15:49.593Z,932.21
2018-09-29T01:16:49.647Z,932.20
2018-09-29T01:17:49.526Z,932.25
2018-09-29T01:18:49.450Z,932.23
2018-09-29T01:19:49.410Z,932.24
2018-09-29T01:20:49.368Z,932.24
2018-09-29T01:21:49.324Z,932.23
2018-09-29T01:22:49.371Z,932.26
2018-09-29T01:23:49.224Z,932.15
2018-09-29T01:24:49.210Z,932.18
2018-09-29T01:25:49.128Z,932.19
2018-09-29T01:26:49.092Z,932.21
2018-09-29T01:27:49.047Z,932.20
2018-09-29T01:28:49.107Z,932.21
2018-09-29T01:29:48.954Z,932.16
2018-09-29T01:30:48.898Z,932.18
2018-09-29T01:31:48.861Z,932.17
2018-09-29T01:32:48.824Z,932.14
2018-09-29T01:33:48.764Z,932.09
2018-09-29T01:34:48.825Z,932.11
2018-09-29T01:35:48.690Z,932.08
2018-09-29T01:36:48.653Z,932.10
2018-09-29T01:37:48.579Z,932.13
2018-09-29T01:38:48.560Z,932.09
2018-09-29T01:39:48.490Z,932.10
2018-09-29T01:40:48.551Z,932.10
2018-09-29T01:41:48.402Z,932.14
2018-09-29T01:42:48.375Z,932.14
2018-09-29T01:43:48.315Z,932.15
2018-09-29T01:44:48.268Z,932.20
2018-09-29T01:45:48.242Z,932.24
2018-09-29T01:46:48.169Z,932.28
2018-09-29T01:47:48.128Z,932.22
2018-09-29T01:48:48.085Z,932.21
2018-09-29T01:49:48.039Z,932.23
2018-09-29T01:50:47.983Z,932.20
2018-09-29T01:51:47.930Z,932.18
2018-09-29T01:52:48.001Z,932.14
2018-09-29T01:53:47.849Z,932.08
2018-09-29T01:54:47.792Z,932.13
2018-09-29T01:55:47.752Z,932.07
2018-09-29T01:56:47.699Z,932.05
2018-09-29T01:57:47.669Z,932.07
2018-09-29T01:58:47.616Z,932.06
2018-09-29T01:59:47.572Z,932.06
2018-09-29T02:00:47.533Z,932.09
2018-09-29T02:01:47.517Z,932.05
2018-09-29T02:02:47.439Z,932.13
2018-09-29T02:03:47.388Z,932.12
2018-09-29T02:04:47.459Z,932.13
2018-09-29T02:05:47.297Z,932.14
2018-09-29T02:06:47.269Z,932.15
2018-09-29T02:07:47.194Z,932.10
2018-09-29T02:08:47.158Z,932.14
2018-09-29T02:09:47.117Z,932.13
2018-09-29T02:10:47.154Z,932.16
2018-09-29T02:11:47.007Z,932.14
2018-09-29T02:12:46.979Z,932.15
2018-09-29T02:13:46.918Z,932.14
2018-09-29T02:14:46.888Z,932.18
2018-09-29T02:15:46.850Z,932.19
2018-09-29T02:16:46.893Z,932.18
2018-09-29T02:17:46.729Z,932.18
2018-09-29T02:18:46.681Z,932.22
2018-09-29T02:19:46.681Z,932.29
2018-09-29T02:20:46.601Z,932.24
2018-09-29T02:21:46.553Z,932.28
2018-09-29T02:22:46.524Z,932.27
2018-09-29T02:23:46.484Z,932.28
2018-09-29T02:24:46.415Z,932.20
2018-09-29T02:25:46.364Z,932.19
2018-09-29T02:26:46.329Z,932.17
2018-09-29T02:27:46.284Z,932.17
2018-09-29T02:28:46.355Z,932.17
2018-09-29T02:29:46.216Z,932.16
2018-09-29T02:30:46.146Z,932.10
2018-09-29T02:31:46.105Z,932.09
2018-09-29T02:32:46.045Z,932.07
2018-09-29T02:33:46.004Z,932.02
2018-09-29T02:34:46.074Z,932.06
2018-09-29T02:35:45.926Z,932.05
2018-09-29T02:36:45.856Z,932.09
2018-09-29T02:37:45.840Z,932.05
2018-09-29T02:38:45.774Z,932.06
2018-09-29T02:39:45.719Z,932.03
2018-09-29T02:40:45.684Z,932.03
2018-09-29T02:41:45.636Z,932.10
2018-09-29T02:42:45.596Z,932.07
2018-09-29T02:43:45.548Z,932.04
2018-09-29T02:44:45.508Z,932.06
2018-09-29T02:45:45.456Z,932.05
2018-09-29T02:46:45.414Z,932.06
2018-09-29T02:47:45.362Z,932.06
2018-09-29T02:48:45.318Z,932.04
2018-09-29T02:49:45.270Z,932.03
2018-09-29T02:50:45.263Z,932.04
2018-09-29T02:51:45.288Z,931.98
2018-09-29T02:52:45.158Z,931.97
2018-09-29T02:53:45.107Z,931.97
2018-09-29T02:54:45.042Z,931.96
2018-09-29T02:55:44.984Z,931.97
2018-09-29T02:56:44.959Z,932.00
2018-09-29T02:57:44.913Z,932.02
2018-09-29T02:58:44.856Z,932.05
2018-09-29T02:59:44.808Z,932.06
2018-09-29T03:00:44.753Z,932.01
2018-09-29T03:01:44.753Z,932.04
2018-09-29T03:02:44.681Z,932.02
2018-09-29T03:03:44.733Z,931.99
2018-09-29T03:04:44.586Z,931.94
2018-09-29T03:05:44.546Z,931.94
2018-09-29T03:06:44.496Z,931.93
2018-09-29T03:07:44.445Z,931.89
2018-09-29T03:08:44.397Z,931.85
2018-09-29T03:09:44.451Z,931.87
2018-09-29T03:10:44.307Z,931.85
2018-09-29T03:11:44.269Z,931.85
2018-09-29T03:12:44.215Z,931.88
2018-09-29T03:13:44.163Z,931.84
2018-09-29T03:14:44.155Z,931.85
2018-09-29T03:15:44.181Z,931.83
2018-09-29T03:16:44.042Z,931.81
2018-09-29T03:17:43.969Z,931.81
2018-09-29T03:18:43.956Z,931.80
2018-09-29T03:19:43.878Z,931.78
2018-09-29T03:20:43.837Z,931.76
2018-09-29T03:21:43.893Z,931.72
2018-09-29T03:22:43.777Z,931.72
2018-09-29T03:23:43.699Z,931.72
2018-09-29T03:24:43.671Z,931.69
2018-09-29T03:25:43.612Z,931.69
2018-09-29T03:26:43.556Z,931.67
2018-09-29T03:27:43.537Z,931.64
2018-09-29T03:28:43.480Z,931.62
2018-09-29T03:29:43.428Z,931.66
2018-09-29T03:30:43.403Z,931.61
2018-09-29T03:31:43.420Z,931.59
2018-09-29T03:32:43.392Z,931.60
2018-09-29T03:33:43.244Z,931.59
2018-09-29T03:34:43.207Z,931.63
2018-09-29T03:35:43.161Z,931.66
2018-09-29T03:36:43.112Z,931.63
2018-09-29T03:37:43.065Z,931.61
2018-09-29T03:38:43.038Z,931.64
2018-09-29T03:39:42.965Z,931.56
2018-09-29T03:40:42.929Z,931.57
2018-09-29T03:41:42.889Z,931.56
2018-09-29T03:42:42.835Z,931.56
2018-09-29T03:43:42.799Z,931.52
2018-09-29T03:44:42.727Z,931.49
2018-09-29T03:45:42.689Z,931.48
2018-09-29T03:46:42.651Z,931.47
2018-09-29T03:47:42.598Z,931.47
2018-09-29T03:48:42.569Z,931.48
2018-09-29T03:49:42.529Z,931.52
2018-09-29T03:50:42.463Z,931.52
2018-09-29T03:51:42.431Z,931.54
2018-09-29T03:52:42.365Z,931.55
2018-09-29T03:53:42.386Z,931.54
2018-09-29T03:54:42.255Z,931.52
2018-09-29T03:55:42.237Z,931.47
2018-09-29T03:56:42.181Z,931.47
2018-09-29T03:57:42.141Z,931.44
2018-09-29T03:58:42.080Z,931.41
2018-09-29T03:59:42.047Z,931.45
2018-09-29T04:00:42.003Z,931.37
2018-09-29T04:01:41.952Z,931.36
2018-09-29T04:02:41.914Z,931.34
2018-09-29T04:03:41.845Z,931.39
2018-09-29T04:04:41.803Z,931.34
2018-09-29T04:05:41.770Z,931.35
2018-09-29T04:06:41.743Z,931.35
2018-09-29T04:07:41.692Z,931.31
2018-09-29T04:08:41.735Z,931.34
2018-09-29T04:09:41.578Z,931.24
2018-09-29T04:10:41.538Z,931.26
2018-09-29T04:11:41.471Z,931.25
2018-09-29T04:12:41.441Z,931.27
2018-09-29T04:13:41.436Z,931.30
2018-09-29T04:14:41.449Z,931.28
2018-09-29T04:15:41.303Z,931.25
2018-09-29T04:16:41.246Z,931.26
2018-09-29T04:17:41.261Z,931.23
2018-09-29T04:18:41.164Z,931.24
2018-09-29T04:19:41.119Z,931.25
2018-09-29T04:20:41.161Z,931.20
2018-09-29T04:21:41.026Z,931.21
2018-09-29T04:22:40.980Z,931.18
2018-09-29T04:23:40.933Z,931.16
2018-09-29T04:24:40.887Z,931.18
2018-09-29T04:25:40.846Z,931.13
2018-09-29T04:26:40.796Z,931.12
2018-09-29T04:27:40.785Z,931.16
2018-09-29T04:28:40.707Z,931.18
2018-09-29T04:29:40.669Z,931.17
2018-09-29T04:30:40.604Z,931.15
2018-09-29T04:31:40.553Z,931.13
2018-09-29T04:32:40.508Z,931.14
2018-09-29T04:33:40.486Z,931.16
2018-09-29T04:34:40.432Z,931.23
2018-09-29T04:35:40.385Z,931.20
2018-09-29T04:36:40.338Z,931.20
2018-09-29T04:37:40.393Z,931.19
2018-09-29T04:38:40.232Z,931.21
2018-09-29T04:39:40.180Z,931.27
2018-09-29T04:40:40.155Z,931.29
2018-09-29T04:41:40.112Z,931.34
2018-09-29T04:42:40.063Z,931.30
2018-09-29T04:43:40.030Z,931.35
2018-09-29T04:44:39.961Z,931.36
2018-09-29T04:45:39.918Z,931.34
2018-09-29T04:46:39.877Z,931.33
2018-09-29T04:47:39.869Z,931.40
2018-09-29T04:48:39.762Z,931.35
2018-09-29T04:49:39.732Z,931.34
2018-09-29T04:50:39.703Z,931.32
2018-09-29T04:51:39.655Z,931.25
2018-09-29T04:52:39.583Z,931.26
2018-09-29T04:53:39.547Z,931.22
2018-09-29T04:54:39.506Z,931.17
2018-09-29T04:55:39.457Z,931.20
2018-09-29T04:56:39.405Z,931.14
2018-09-29T04:57:39.364Z,931.18
2018-09-29T04:58:39.306Z,931.14
2018-09-29T04:59:39.283Z,931.14
2018-09-29T05:00:39.239Z,931.11
2018-09-29T05:01:39.279Z,931.11
2018-09-29T05:02:39.135Z,931.13
2018-09-29T05:03:39.095Z,931.13
2018-09-29T05:04:39.036Z,931.11
2018-09-29T05:05:38.993Z,931.14
2018-09-29T05:06:39.016Z,931.14
2018-09-29T05:07:39.008Z,931.13
2018-09-29T05:08:38.870Z,931.12
2018-09-29T05:09:38.797Z,931.12
2018-09-29T05:10:38.767Z,931.12
2018-09-29T05:11:38.710Z,931.10
2018-09-29T05:12:38.656Z,931.12
2018-09-29T05:13:38.627Z,931.07
2018-09-29T05:14:38.586Z,931.09
2018-09-29T05:15:38.528Z,931.03
2018-09-29T05:16:38.483Z,931.00
2018-09-29T05:17:38.444Z,930.99
2018-09-29T05:18:38.400Z,930.97
2018-09-29T05:19:38.446Z,930.93
2018-09-29T05:20:38.301Z,931.00
2018-09-29T05:21:38.251Z,930.97
2018-09-29T05:22:38.211Z,930.90
2018-09-29T05:23:38.153Z,930.94
2018-09-29T05:24:38.117Z,930.93
2018-09-29T05:25:38.062Z,930.86
2018-09-29T05:26:38.016Z,930.83
2018-09-29T05:27:37.968Z,930.81
2018-09-29T05:28:37.927Z,930.82
2018-09-29T05:29:37.888Z,930.74
2018-09-29T05:30:37.843Z,930.74
2018-09-29T05:31:37.798Z,930.68
2018-09-29T05:32:37.734Z,930.66
2018-09-29T05:33:37.695Z,930.71
2018-09-29T05:34:37.653Z,930.69
2018-09-29T05:35:37.614Z,930.69
2018-09-29T05:36:37.552Z,930.71
2018-09-29T05:37:37.509Z,930.72
2018-09-29T05:38:37.463Z,930.72
2018-09-29T05:39:37.411Z,930.74
2018-09-29T05:40:37.375Z,930.71
2018-09-29T05:41:37.317Z,930.71
2018-09-29T05:42:37.271Z,930.73
2018-09-29T05:43:37.325Z,930.69
2018-09-29T05:44:37.215Z,930.74
2018-09-29T05:45:37.139Z,930.73
2018-09-29T05:46:37.100Z,930.76
2018-09-29T05:47:37.037Z,930.76
2018-09-29T05:48:36.988Z,930.74
2018-09-29T05:49:36.946Z,930.72
2018-09-29T05:50:36.918Z,930.70
2018-09-29T05:51:36.855Z,930.71
2018-09-29T05:52:36.813Z,930.71
2018-09-29T05:53:36.762Z,930.74
2018-09-29T05:54:36.804Z,930.78
2018-09-29T05:55:36.772Z,930.70
2018-09-29T05:56:36.628Z,930.77
2018-09-29T05:57:36.581Z,930.72
2018-09-29T05:58:36.536Z,930.71
2018-09-29T05:59:36.478Z,930.73
2018-09-29T06:00:36.480Z,930.69
2018-09-29T06:01:36.391Z,930.76
2018-09-29T06:02:36.345Z,930.72
2018-09-29T06:03:36.330Z,930.77
2018-09-29T06:04:36.262Z,930.77
2018-09-29T06:05:36.244Z,930.81
2018-09-29T06:06:36.172Z,930.86
2018-09-29T06:07:36.173Z,930.85
2018-09-29T06:08:36.074Z,930.87
2018-09-29T06:09:36.015Z,930.82
2018-09-29T06:10:35.997Z,930.85
2018-09-29T06:11:35.927Z,930.82
2018-09-29T06:12:35.888Z,930.81
2018-09-29T06:13:35.953Z,930.76
2018-09-29T06:14:35.786Z,930.75
2018-09-29T06:15:35.756Z,930.77
2018-09-29T06:16:35.751Z,930.76
2018-09-29T06:17:35.645Z,930.79
2018-09-29T06:18:35.613Z,930.74
2018-09-29T06:19:35.663Z,930.83
2018-09-29T06:20:35.511Z,930.83
2018-09-29T06:21:35.465Z,930.79
2018-09-29T06:22:35.408Z,930.80
2018-09-29T06:23:35.379Z,930.73
2018-09-29T06:24:35.336Z,930.71
2018-09-29T06:25:35.295Z,930.73
2018-09-29T06:26:35.227Z,930.72
2018-09-29T06:27:35.198Z,930.71
2018-09-29T06:28:35.161Z,930.72
2018-09-29T06:29:35.095Z,930.74
2018-09-29T06:30:35.074Z,930.70
2018-09-29T06:31:35.097Z,930.72
2018-09-29T06:32:34.948Z,930.64
2018-09-29T06:33:34.914Z,930.68
2018-09-29T06:34:34.856Z,930.70
2018-09-29T06:35:34.812Z,930.72
2018-09-29T06:36:34.779Z,930.67
2018-09-29T06:37:34.730Z,930.70
2018-09-29T06:38:34.665Z,930.72
2018-09-29T06:39:34.638Z,930.76
2018-09-29T06:40:34.650Z,930.78
2018-09-29T06:41:34.549Z,930.71
2018-09-29T06:42:34.505Z,930.75
2018-09-29T06:43:34.556Z,930.71
2018-09-29T06:44:34.401Z,930.72
2018-09-29T06:45:34.360Z,930.75
2018-09-29T06:46:34.321Z,930.75
2018-09-29T06:47:34.313Z,930.74
2018-09-29T06:48:34.232Z,930.72
2018-09-29T06:49:34.299Z,930.77
2018-09-29T06:50:34.132Z,930.72
2018-09-29T06:51:34.079Z,930.74
2018-09-29T06:52:34.029Z,930.71
2018-09-29T06:53:33.997Z,930.69
2018-09-29T06:54:33.989Z,930.65
2018-09-29T06:55:33.986Z,930.65
2018-09-29T06:56:33.839Z,930.69
2018-09-29T06:57:33.809Z,930.68
2018-09-29T06:58:33.761Z,930.73
2018-09-29T06:59:33.704Z,930.76
2018-09-29T07:00:33.663Z,930.81
2018-09-29T07:01:33.634Z,930.80
2018-09-29T07:02:33.589Z,930.76
2018-09-29T07:03:33.519Z,930.81
2018-09-29T07:04:33.472Z,930.82
2018-09-29T07:05:33.426Z,930.84
2018-09-29T07:06:33.381Z,930.82
2018-09-29T07:07:33.323Z,930.82
2018-09-29T07:08:33.299Z,930.82
2018-09-29T07:09:33.244Z,930.80
2018-09-29T07:10:33.227Z,930.78
2018-09-29T07:11:33.143Z,930.79
2018-09-29T07:12:33.095Z,930.81
2018-09-29T07:13:33.165Z,930.79
2018-09-29T07:14:33.018Z,930.81
2018-09-29T07:15:32.987Z,930.80
2018-09-29T07:16:32.908Z,930.80
2018-09-29T07:17:32.872Z,930.81
2018-09-29T07:18:32.850Z,930.88
2018-09-29T07:19:32.791Z,930.85
2018-09-29T07:20:32.730Z,930.89
2018-09-29T07:21:32.774Z,930.90
2018-09-29T07:22:32.643Z,930.92
2018-09-29T07:23:32.590Z,930.96
2018-09-29T07:24:32.553Z,930.95
2018-09-29T07:25:32.651Z,930.94
2018-09-29T07:26:32.474Z,930.95
2018-09-29T07:27:32.417Z,930.94
2018-09-29T07:28:32.368Z,931.00
2018-09-29T07:29:32.330Z,930.96
2018-09-29T07:30:32.276Z,931.06
2018-09-29T07:31:32.282Z,931.01
2018-09-29T07:32:32.173Z,931.06
2018-09-29T07:33:32.128Z,931.16
2018-09-29T07:34:32.088Z,931.11
2018-09-29T07:35:32.033Z,931.10
2018-09-29T07:36:31.981Z,931.06
2018-09-29T07:37:32.053Z,931.19
2018-09-29T07:38:31.896Z,931.18
2018-09-29T07:39:31.841Z,931.19
2018-09-29T07:40:31.797Z,931.21
2018-09-29T07:41:31.774Z,931.22
2018-09-29T07:42:31.725Z,931.29
2018-09-29T07:43:31.662Z,931.25
2018-09-29T07:44:31.617Z,931.23
2018-09-29T07:45:31.562Z,931.31
2018-09-29T07:46:31.528Z,931.25
2018-09-29T07:47:31.481Z,931.27
2018-09-29T07:48:31.435Z,931.28
2018-09-29T07:49:31.489Z,931.25
2018-09-29T07:50:31.342Z,931.24
2018-09-29T07:51:31.297Z,931.25
2018-09-29T07:52:31.245Z,931.24
2018-09-29T07:53:31.198Z,931.23
2018-09-29T07:54:31.165Z,931.27
2018-09-29T07:55:31.105Z,931.29
2018-09-29T07:56:31.064Z,931.28
2018-09-29T07:57:31.005Z,931.29
2018-09-29T07:58:30.976Z,931.32
2018-09-29T07:59:30.924Z,931.31
2018-09-29T08:00:30.889Z,931.30
2018-09-29T08:01:30.927Z,931.32
2018-09-29T08:02:30.785Z,931.33
2018-09-29T08:03:30.732Z,931.35
2018-09-29T08:04:30.686Z,931.35
2018-09-29T08:05:30.641Z,931.36
2018-09-29T08:06:30.688Z,931.38
2018-09-29T08:07:30.648Z,931.32
2018-09-29T08:08:30.529Z,931.26
2018-09-29T08:09:30.468Z,931.27
2018-09-29T08:10:30.415Z,931.31
2018-09-29T08:11:30.366Z,931.26
2018-09-29T08:12:30.420Z,931.23
2018-09-29T08:13:30.381Z,931.22
2018-09-29T08:14:30.255Z,931.24
2018-09-29T08:15:30.189Z,931.25
2018-09-29T08:16:30.142Z,931.30
2018-09-29T08:17:30.101Z,931.24
2018-09-29T08:18:30.037Z,931.31
2018-09-29T08:19:29.998Z,931.24
2018-09-29T08:20:29.944Z,931.25
2018-09-29T08:21:29.914Z,931.23
2018-09-29T08:22:29.865Z,931.29
2018-09-29T08:23:29.824Z,931.29
2018-09-29T08:24:29.755Z,931.18
2018-09-29T08:25:29.714Z,931.16
2018-09-29T08:26:29.655Z,931.23
2018-09-29T08:27:29.630Z,931.23
2018-09-29T08:28:29.601Z,931.19
2018-09-29T08:29:29.528Z,931.23
2018-09-29T08:30:29.566Z,931.19
2018-09-29T08:31:29.561Z,931.24
2018-09-29T08:32:29.395Z,931.24
2018-09-29T08:33:29.341Z,931.19
2018-09-29T08:34:29.302Z,931.19
2018-09-29T08:35:29.257Z,931.25
2018-09-29T08:36:29.209Z,931.30
2018-09-29T08:37:29.179Z,931.34
2018-09-29T08:38:29.111Z,931.33
2018-09-29T08:39:29.069Z,931.33
2018-09-29T08:40:29.031Z,931.36
2018-09-29T08:41:28.975Z,931.38
2018-09-29T08:42:28.949Z,931.38
2018-09-29T08:43:28.974Z,931.38
2018-09-29T08:44:28.824Z,931.37
2018-09-29T08:45:28.797Z,931.39
2018-09-29T08:46:28.731Z,931.41
2018-09-29T08:47:28.692Z,931.43
2018-09-29T08:48:28.667Z,931.44
2018-09-29T08:49:28.711Z,931.48
2018-09-29T08:50:28.555Z,931.45
2018-09-29T08:51:28.513Z,931.47
2018-09-29T08:52:28.480Z,931.50
2018-09-29T08:53:28.444Z,931.55
2018-09-29T08:54:28.378Z,931.56
2018-09-29T08:55:28.321Z,931.54
2018-09-29T08:56:28.277Z,931.63
2018-09-29T08:57:28.221Z,931.60
2018-09-29T08:58:28.203Z,931.58
2018-09-29T08:59:28.123Z,931.57
2018-09-29T09:00:28.098Z,931.55
2018-09-29T09:01:28.181Z,931.59
2018-09-29T09:02:27.997Z,931.57
2018-09-29T09:03:27.955Z,931.59
2018-09-29T09:04:27.903Z,931.57
2018-09-29T09:05:27.877Z,931.60
2018-09-29T09:06:27.814Z,931.60
2018-09-29T09:07:27.776Z,931.64
2018-09-29T09:08:27.724Z,931.71
2018-09-29T09:09:27.791Z,931.67
2018-09-29T09:10:27.642Z,931.69
2018-09-29T09:11:27.601Z,931.68
2018-09-29T09:12:27.589Z,931.67
2018-09-29T09:13:27.492Z,931.65
2018-09-29T09:14:27.451Z,931.70
2018-09-29T09:15:27.395Z,931.65
2018-09-29T09:16:27.371Z,931.67
2018-09-29T09:17:27.318Z,931.64
2018-09-29T09:18:27.248Z,931.68
2018-09-29T09:19:27.315Z,931.70
2018-09-29T09:20:27.165Z,931.70
2018-09-29T09:21:27.114Z,931.75
2018-09-29T09:22:27.063Z,931.72
2018-09-29T09:23:27.067Z,931.72
2018-09-29T09:24:26.988Z,931.75
2018-09-29T09:25:26.935Z,931.76
2018-09-29T09:26:26.900Z,931.81
2018-09-29T09:27:26.859Z,931.78
2018-09-29T09:28:26.794Z,931.80
2018-09-29T09:29:26.743Z,931.82
2018-09-29T09:30:26.704Z,931.77
2018-09-29T09:31:26.758Z,931.75
2018-09-29T09:32:26.609Z,931.74
2018-09-29T09:33:26.563Z,931.76
2018-09-29T09:34:26.513Z,931.73
2018-09-29T09:35:26.470Z,931.77
2018-09-29T09:36:26.441Z,931.81
2018-09-29T09:37:26.378Z,931.86
2018-09-29T09:38:26.337Z,931.84
2018-09-29T09:39:26.283Z,931.84
2018-09-29T09:40:26.260Z,931.86
2018-09-29T09:41:26.194Z,931.84
2018-09-29T09:42:26.154Z,931.90
2018-09-29T09:43:26.134Z,931.91
2018-09-29T09:44:26.051Z,931.95
2018-09-29T09:45:25.998Z,931.94
2018-09-29T09:46:25.949Z,931.94
2018-09-29T09:47:25.927Z,931.98
2018-09-29T09:48:25.862Z,931.99
2018-09-29T09:49:25.843Z,932.03
2018-09-29T09:50:25.776Z,932.06
2018-09-29T09:51:25.730Z,932.10
2018-09-29T09:52:25.684Z,932.09
2018-09-29T09:53:25.637Z,932.05
2018-09-29T09:54:25.576Z,932.13
2018-09-29T09:55:25.632Z,932.10
2018-09-29T09:56:25.513Z,932.17
2018-09-29T09:57:25.456Z,932.14
2018-09-29T09:58:25.429Z,932.10
2018-09-29T09:59:25.367Z,932.13
2018-09-29T10:00:25.307Z,932.12
2018-09-29T10:01:25.389Z,932.12
2018-09-29T10:02:25.242Z,932.10
2018-09-29T10:03:25.192Z,932.10
2018-09-29T10:04:25.118Z,932.12
2018-09-29T10:05:25.093Z,932.10
2018-09-29T10:06:25.047Z,932.08
2018-09-29T10:07:25.102Z,932.12
2018-09-29T10:08:24.937Z,932.14
2018-09-29T10:09:24.932Z,932.07
2018-09-29T10:10:24.867Z,932.12
2018-09-29T10:11:24.811Z,932.14
2018-09-29T10:12:24.774Z,932.14
2018-09-29T10:13:24.716Z,932.15
2018-09-29T10:14:24.675Z,932.12
2018-09-29T10:15:24.644Z,932.18
2018-09-29T10:16:24.585Z,932.12
2018-09-29T10:17:24.587Z,932.20
2018-09-29T10:18:24.521Z,932.15
2018-09-29T10:19:24.449Z,932.17
2018-09-29T10:20:24.395Z,932.20
2018-09-29T10:21:24.348Z,932.20
2018-09-29T10:22:24.316Z,932.18
2018-09-29T10:23:24.266Z,932.18
2018-09-29T10:24:24.312Z,932.16
2018-09-29T10:25:24.173Z,932.17
2018-09-29T10:26:24.123Z,932.18
2018-09-29T10:27:24.080Z,932.23
2018-09-29T10:28:24.025Z,932.22
2018-09-29T10:29:23.987Z,932.24
2018-09-29T10:30:23.957Z,932.26
2018-09-29T10:31:23.899Z,932.26
2018-09-29T10:32:23.842Z,932.31
2018-09-29T10:33:23.833Z,932.24
2018-09-29T10:34:23.741Z,932.29
2018-09-29T10:35:23.713Z,932.25
2018-09-29T10:36:23.712Z,932.25
2018-09-29T10:37:23.616Z,932.28
2018-09-29T10:38:23.569Z,932.35
2018-09-29T10:39:23.522Z,932.35
2018-09-29T10:40:23.483Z,932.40
2018-09-29T10:41:23.450Z,932.40
2018-09-29T10:42:23.414Z,932.39
2018-09-29T10:43:23.373Z,932.44
2018-09-29T10:44:23.289Z,932.47
2018-09-29T10:45:23.259Z,932.48
2018-09-29T10:46:23.235Z,932.44
2018-09-29T10:47:23.151Z,932.50
2018-09-29T10:48:23.213Z,932.55
2018-09-29T10:49:23.086Z,932.56
2018-09-29T10:50:23.024Z,932.51
2018-09-29T10:51:22.979Z,932.54
2018-09-29T10:52:22.947Z,932.49
2018-09-29T10:53:22.881Z,932.50
2018-09-29T10:54:22.878Z,932.51
2018-09-29T10:55:22.792Z,932.52
2018-09-29T10:56:22.747Z,932.49
2018-09-29T10:57:22.703Z,932.55
2018-09-29T10:58:22.664Z,932.53
2018-09-29T10:59:22.620Z,932.60
2018-09-29T11:00:22.676Z,932.51
2018-09-29T11:01:22.508Z,932.53
2018-09-29T11:02:22.476Z,932.56
2018-09-29T11:03:22.418Z,932.54
2018-09-29T11:04:22.380Z,932.54
2018-09-29T11:05:22.331Z,932.54
2018-09-29T11:06:22.383Z,932.54
2018-09-29T11:07:22.249Z,932.53
2018-09-29T11:08:22.231Z,932.50
2018-09-29T11:09:22.168Z,932.52
2018-09-29T11:10:22.107Z,932.45
2018-09-29T11:11:22.076Z,932.51
2018-09-29T11:12:22.134Z,932.48
2018-09-29T11:13:21.968Z,932.50
2018-09-29T11:14:21.967Z,932.53
2018-09-29T11:15:21.886Z,932.52
2018-09-29T11:16:21.832Z,932.54
2018-09-29T11:17:21.778Z,932.54
2018-09-29T11:18:21.825Z,932.57
2018-09-29T11:19:21.681Z,932.61
2018-09-29T11:20:21.641Z,932.61
2018-09-29T11:21:21.618Z,932.61
2018-09-29T11:22:21.556Z,932.60
2018-09-29T11:23:21.523Z,932.56
2018-09-29T11:24:21.472Z,932.60
2018-09-29T11:25:21.432Z,932.60
2018-09-29T11:26:21.381Z,932.60
2018-09-29T11:27:21.381Z,932.66
2018-09-29T11:28:21.440Z,932.69
2018-09-29T11:29:21.254Z,932.64
2018-09-29T11:30:21.187Z,932.71
2018-09-29T11:31:21.154Z,932.78
2018-09-29T11:32:21.127Z,932.81
2018-09-29T11:33:21.044Z,932.79
2018-09-29T11:34:21.004Z,932.82
2018-09-29T11:35:20.970Z,932.78
2018-09-29T11:36:20.913Z,932.73
2018-09-29T11:37:20.872Z,932.75
2018-09-29T11:38:20.829Z,932.73
2018-09-29T11:39:20.810Z,932.71
2018-09-29T11:40:20.730Z,932.72
2018-09-29T11:41:20.791Z,932.70
2018-09-29T11:42:20.640Z,932.71
2018-09-29T11:43:20.613Z,932.71
2018-09-29T11:44:20.571Z,932.73
2018-09-29T11:45:20.517Z,932.75
2018-09-29T11:46:20.484Z,932.79
2018-09-29T11:47:20.425Z,932.75
2018-09-29T11:48:20.390Z,932.78
2018-09-29T11:49:20.337Z,932.81
2018-09-29T11:50:20.297Z,932.85
2018-09-29T11:51:20.227Z,932.83
2018-09-29T11:52:20.190Z,932.78
2018-09-29T11:53:20.153Z,932.85
2018-09-29T11:54:20.117Z,932.86
2018-09-29T11:55:20.057Z,932.77
2018-09-29T11:56:20.022Z,932.79
2018-09-29T11:57:19.961Z,932.78
2018-09-29T11:58:19.937Z,932.76
2018-09-29T11:59:19.890Z,932.74
2018-09-29T12:00:19.844Z,932.78
2018-09-29T12:01:19.792Z,932.78
2018-09-29T12:02:19.851Z,932.75
2018-09-29T12:03:19.694Z,932.72
2018-09-29T12:04:19.647Z,932.71
2018-09-29T12:05:19.605Z,932.75
2018-09-29T12:06:19.665Z,932.71
2018-09-29T12:07:19.572Z,932.72
2018-09-29T12:08:19.487Z,932.74
2018-09-29T12:09:19.435Z,932.80
2018-09-29T12:10:19.382Z,932.81
2018-09-29T12:11:19.423Z,932.81
2018-09-29T12:12:19.275Z,932.85
2018-09-29T12:13:19.228Z,932.83
2018-09-29T12:14:19.193Z,932.85
2018-09-29T12:15:19.167Z,932.83
2018-09-29T12:16:19.102Z,932.79
2018-09-29T12:17:19.048Z,932.82
2018-09-29T12:18:19.019Z,932.72
2018-09-29T12:19:18.961Z,932.73
2018-09-29T12:20:18.931Z,932.69
2018-09-29T12:21:18.883Z,932.69
2018-09-29T12:22:18.899Z,932.70
2018-09-29T12:23:18.891Z,932.67
2018-09-29T12:24:18.747Z,932.68
2018-09-29T12:25:18.749Z,932.62
2018-09-29T12:26:18.671Z,932.69
2018-09-29T12:27:18.599Z,932.66
2018-09-29T12:28:18.554Z,932.59